Fort Chipewyan, Canada
Current Conditions -  °F | °C
As of 1:00 PM on Tuesday 27 Jan 2015 (Local Time) from CYPY Reporting Station
Clear Clear  
Wind Chill: -26°   Ceiling: Unl
Heat Index: -11°   Visibility: 9mi
Dew Point: -17°   Wind: 7mph
Humidity: 77%   Direction: 240°WSW
Pressure: 30.27"   Gusts: NA
Location:  58.71°N, 111.15°W
Report Text: CYPY 272000Z AUTO 24006KT 9SM CLR M24/M27 A3027 RMK WX MISG VIS MISG SLP280
Loading
Personal Weather Stations






























Interactive Weather Map New forecast layout! Learn more

10-Day Weather Forecast

Advertisements
Track Severe Weather on mobile